sensor_id;sensor_type;location;lat;lon;timestamp;P1;durP1;ratioP1;P2;durP2;ratioP2
151;SDS011;68;48.792;9.164;2023-06-10T00:00:20;26.97;;;12.30;;
151;SDS011;68;48.792;9.164;2023-06-10T00:02:47;26.90;;;12.47;;
151;SDS011;68;48.792;9.164;2023-06-10T00:05:14;28.23;;;12.70;;
151;SDS011;68;48.792;9.164;2023-06-10T00:07:41;26.87;;;13.03;;
151;SDS011;68;48.792;9.164;2023-06-10T00:10:08;28.27;;;13.27;;
151;SDS011;68;48.792;9.164;2023-06-10T00:12:35;26.87;;;13.33;;
151;SDS011;68;48.792;9.164;2023-06-10T00:15:04;27.10;;;12.40;;
151;SDS011;68;48.792;9.164;2023-06-10T00:17:32;25.70;;;13.00;;
151;SDS011;68;48.792;9.164;2023-06-10T00:19:59;28.77;;;14.27;;
151;SDS011;68;48.792;9.164;2023-06-10T00:22:29;27.27;;;13.60;;
151;SDS011;68;48.792;9.164;2023-06-10T00:24:57;26.93;;;13.60;;
151;SDS011;68;48.792;9.164;2023-06-10T00:27:24;26.27;;;13.10;;
151;SDS011;68;48.792;9.164;2023-06-10T00:29:56;24.70;;;12.50;;
151;SDS011;68;48.792;9.164;2023-06-10T00:32:22;27.73;;;13.53;;
151;SDS011;68;48.792;9.164;2023-06-10T00:34:51;29.07;;;14.07;;
151;SDS011;68;48.792;9.164;2023-06-10T00:37:17;26.37;;;13.77;;
151;SDS011;68;48.792;9.164;2023-06-10T00:39:44;29.10;;;14.33;;
151;SDS011;68;48.792;9.164;2023-06-10T00:42:11;26.87;;;12.43;;
151;SDS011;68;48.792;9.164;2023-06-10T00:44:38;26.17;;;13.97;;
151;SDS011;68;48.792;9.164;2023-06-10T00:47:05;27.43;;;13.53;;
151;SDS011;68;48.792;9.164;2023-06-10T00:49:33;27.97;;;14.60;;
151;SDS011;68;48.792;9.164;2023-06-10T00:52:01;28.17;;;14.00;;
151;SDS011;68;48.792;9.164;2023-06-10T00:54:30;24.53;;;11.97;;
151;SDS011;68;48.792;9.164;2023-06-10T00:56:59;26.20;;;13.43;;
151;SDS011;68;48.792;9.164;2023-06-10T00:59:27;26.70;;;13.87;;
151;SDS011;68;48.792;9.164;2023-06-10T01:01:56;26.17;;;13.70;;
151;SDS011;68;48.792;9.164;2023-06-10T01:04:23;27.10;;;12.40;;
151;SDS011;68;48.792;9.164;2023-06-10T01:06:50;24.83;;;13.67;;
151;SDS011;68;48.792;9.164;2023-06-10T01:09:25;26.97;;;12.93;;
151;SDS011;68;48.792;9.164;2023-06-10T01:12:01;25.80;;;12.67;;
151;SDS011;68;48.792;9.164;2023-06-10T01:14:33;25.57;;;13.17;;
151;SDS011;68;48.792;9.164;2023-06-10T01:17:01;26.93;;;12.57;;
151;SDS011;68;48.792;9.164;2023-06-10T01:19:29;26.87;;;13.20;;
151;SDS011;68;48.792;9.164;2023-06-10T01:21:58;26.27;;;14.00;;
151;SDS011;68;48.792;9.164;2023-06-10T01:24:25;27.30;;;14.17;;
151;SDS011;68;48.792;9.164;2023-06-10T01:26:52;25.97;;;13.67;;
151;SDS011;68;48.792;9.164;2023-06-10T01:29:23;26.50;;;13.87;;
151;SDS011;68;48.792;9.164;2023-06-10T01:32:00;27.63;;;14.17;;
151;SDS011;68;48.792;9.164;2023-06-10T01:34:32;27.17;;;12.60;;
151;SDS011;68;48.792;9.164;2023-06-10T01:37:02;26.07;;;14.10;;
151;SDS011;68;48.792;9.164;2023-06-10T01:39:30;27.10;;;13.47;;
151;SDS011;68;48.792;9.164;2023-06-10T01:41:58;30.60;;;13.80;;
151;SDS011;68;48.792;9.164;2023-06-10T01:44:27;26.20;;;12.90;;
151;SDS011;68;48.792;9.164;2023-06-10T01:46:54;27.30;;;13.47;;
151;SDS011;68;48.792;9.164;2023-06-10T01:49:21;23.97;;;11.47;;
151;SDS011;68;48.792;9.164;2023-06-10T01:51:49;25.63;;;12.50;;
151;SDS011;68;48.792;9.164;2023-06-10T01:54:17;25.00;;;12.60;;
151;SDS011;68;48.792;9.164;2023-06-10T01:56:44;26.23;;;12.93;;
151;SDS011;68;48.792;9.164;2023-06-10T01:59:10;24.23;;;11.27;;
151;SDS011;68;48.792;9.164;2023-06-10T02:01:37;23.83;;;11.50;;
151;SDS011;68;48.792;9.164;2023-06-10T02:04:04;24.30;;;12.40;;
151;SDS011;68;48.792;9.164;2023-06-10T02:06:31;22.83;;;11.87;;
151;SDS011;68;48.792;9.164;2023-06-10T02:08:57;25.07;;;12.10;;
151;SDS011;68;48.792;9.164;2023-06-10T02:11:25;23.93;;;11.50;;
151;SDS011;68;48.792;9.164;2023-06-10T02:13:52;28.47;;;11.67;;
151;SDS011;68;48.792;9.164;2023-06-10T02:16:20;25.80;;;11.80;;
151;SDS011;68;48.792;9.164;2023-06-10T02:18:47;24.77;;;12.10;;
151;SDS011;68;48.792;9.164;2023-06-10T02:21:13;25.10;;;12.00;;
151;SDS011;68;48.792;9.164;2023-06-10T02:23:40;24.67;;;12.07;;
151;SDS011;68;48.792;9.164;2023-06-10T02:26:07;23.70;;;11.37;;
151;SDS011;68;48.792;9.164;2023-06-10T02:28:35;26.63;;;12.87;;
151;SDS011;68;48.792;9.164;2023-06-10T02:31:02;25.20;;;11.53;;
151;SDS011;68;48.792;9.164;2023-06-10T02:33:28;23.73;;;11.20;;
151;SDS011;68;48.792;9.164;2023-06-10T02:35:55;26.00;;;13.93;;
151;SDS011;68;48.792;9.164;2023-06-10T02:38:22;23.73;;;10.90;;
151;SDS011;68;48.792;9.164;2023-06-10T02:40:49;23.20;;;11.33;;
151;SDS011;68;48.792;9.164;2023-06-10T02:43:15;25.70;;;12.17;;
151;SDS011;68;48.792;9.164;2023-06-10T02:45:43;24.20;;;10.73;;
151;SDS011;68;48.792;9.164;2023-06-10T02:48:10;24.07;;;11.20;;
151;SDS011;68;48.792;9.164;2023-06-10T02:50:37;25.20;;;11.50;;
151;SDS011;68;48.792;9.164;2023-06-10T02:53:05;24.33;;;12.13;;
151;SDS011;68;48.792;9.164;2023-06-10T02:55:31;25.87;;;12.47;;
151;SDS011;68;48.792;9.164;2023-06-10T02:58:00;26.93;;;12.30;;
151;SDS011;68;48.792;9.164;2023-06-10T03:00:27;25.37;;;11.50;;
151;SDS011;68;48.792;9.164;2023-06-10T03:02:55;28.33;;;13.53;;
151;SDS011;68;48.792;9.164;2023-06-10T03:05:23;25.10;;;12.67;;
151;SDS011;68;48.792;9.164;2023-06-10T03:07:50;32.53;;;14.07;;
151;SDS011;68;48.792;9.164;2023-06-10T03:10:16;26.80;;;12.53;;
151;SDS011;68;48.792;9.164;2023-06-10T03:12:43;27.10;;;14.33;;
151;SDS011;68;48.792;9.164;2023-06-10T03:15:10;28.67;;;14.93;;
151;SDS011;68;48.792;9.164;2023-06-10T03:17:37;25.40;;;13.73;;
151;SDS011;68;48.792;9.164;2023-06-10T03:20:06;26.40;;;13.50;;
151;SDS011;68;48.792;9.164;2023-06-10T03:22:35;26.77;;;13.60;;
151;SDS011;68;48.792;9.164;2023-06-10T03:25:03;24.87;;;13.53;;
151;SDS011;68;48.792;9.164;2023-06-10T03:27:30;25.77;;;14.20;;
151;SDS011;68;48.792;9.164;2023-06-10T03:29:57;24.90;;;13.50;;
151;SDS011;68;48.792;9.164;2023-06-10T03:32:24;28.37;;;14.33;;
151;SDS011;68;48.792;9.164;2023-06-10T03:34:51;27.40;;;13.10;;
151;SDS011;68;48.792;9.164;2023-06-10T03:37:23;26.30;;;13.67;;
151;SDS011;68;48.792;9.164;2023-06-10T03:39:50;27.80;;;14.77;;
151;SDS011;68;48.792;9.164;2023-06-10T03:42:16;29.97;;;15.70;;
151;SDS011;68;48.792;9.164;2023-06-10T03:44:43;25.97;;;14.00;;
151;SDS011;68;48.792;9.164;2023-06-10T03:47:10;26.00;;;14.40;;
151;SDS011;68;48.792;9.164;2023-06-10T03:49:37;26.83;;;14.97;;
151;SDS011;68;48.792;9.164;2023-06-10T03:52:05;26.70;;;13.70;;
151;SDS011;68;48.792;9.164;2023-06-10T03:54:33;26.60;;;13.97;;
151;SDS011;68;48.792;9.164;2023-06-10T03:57:00;26.30;;;14.30;;
151;SDS011;68;48.792;9.164;2023-06-10T03:59:28;25.10;;;13.67;;
151;SDS011;68;48.792;9.164;2023-06-10T04:01:55;27.30;;;13.60;;
151;SDS011;68;48.792;9.164;2023-06-10T04:04:22;26.53;;;14.60;;
151;SDS011;68;48.792;9.164;2023-06-10T04:06:49;24.50;;;13.40;;
151;SDS011;68;48.792;9.164;2023-06-10T04:09:16;25.00;;;12.97;;
151;SDS011;68;48.792;9.164;2023-06-10T04:11:45;23.83;;;13.07;;
151;SDS011;68;48.792;9.164;2023-06-10T04:14:13;25.17;;;12.60;;
151;SDS011;68;48.792;9.164;2023-06-10T04:16:40;26.43;;;13.90;;
151;SDS011;68;48.792;9.164;2023-06-10T04:19:07;26.50;;;14.97;;
151;SDS011;68;48.792;9.164;2023-06-10T04:21:34;24.87;;;13.33;;
151;SDS011;68;48.792;9.164;2023-06-10T04:24:01;24.47;;;12.97;;
151;SDS011;68;48.792;9.164;2023-06-10T04:26:28;25.23;;;13.40;;
151;SDS011;68;48.792;9.164;2023-06-10T04:28:57;25.43;;;14.30;;
151;SDS011;68;48.792;9.164;2023-06-10T04:31:23;28.63;;;13.67;;
151;SDS011;68;48.792;9.164;2023-06-10T04:33:50;28.90;;;14.70;;
151;SDS011;68;48.792;9.164;2023-06-10T04:36:17;24.87;;;13.70;;
151;SDS011;68;48.792;9.164;2023-06-10T04:38:44;25.43;;;13.13;;
151;SDS011;68;48.792;9.164;2023-06-10T04:41:11;32.93;;;13.33;;
151;SDS011;68;48.792;9.164;2023-06-10T04:43:38;24.40;;;13.10;;
151;SDS011;68;48.792;9.164;2023-06-10T04:46:06;27.50;;;13.20;;
151;SDS011;68;48.792;9.164;2023-06-10T04:48:33;26.77;;;14.33;;
151;SDS011;68;48.792;9.164;2023-06-10T04:51:01;28.00;;;13.90;;
151;SDS011;68;48.792;9.164;2023-06-10T04:53:27;26.20;;;14.03;;
151;SDS011;68;48.792;9.164;2023-06-10T04:55:54;28.00;;;15.07;;
151;SDS011;68;48.792;9.164;2023-06-10T04:58:22;26.97;;;15.00;;
151;SDS011;68;48.792;9.164;2023-06-10T05:00:49;29.10;;;15.83;;
151;SDS011;68;48.792;9.164;2023-06-10T05:03:17;26.40;;;14.27;;
151;SDS011;68;48.792;9.164;2023-06-10T05:05:44;32.80;;;16.30;;
151;SDS011;68;48.792;9.164;2023-06-10T05:08:11;28.03;;;16.20;;
151;SDS011;68;48.792;9.164;2023-06-10T05:10:37;27.47;;;15.20;;
151;SDS011;68;48.792;9.164;2023-06-10T05:13:04;27.17;;;15.27;;
151;SDS011;68;48.792;9.164;2023-06-10T05:15:31;29.63;;;16.50;;
151;SDS011;68;48.792;9.164;2023-06-10T05:17:58;27.67;;;16.27;;
151;SDS011;68;48.792;9.164;2023-06-10T05:20:26;28.13;;;14.70;;
151;SDS011;68;48.792;9.164;2023-06-10T05:22:53;26.30;;;15.00;;
151;SDS011;68;48.792;9.164;2023-06-10T05:25:20;27.50;;;16.30;;
151;SDS011;68;48.792;9.164;2023-06-10T05:27:47;27.63;;;15.17;;
151;SDS011;68;48.792;9.164;2023-06-10T05:30:14;27.97;;;16.10;;
151;SDS011;68;48.792;9.164;2023-06-10T05:32:43;26.60;;;13.80;;
151;SDS011;68;48.792;9.164;2023-06-10T05:35:10;32.30;;;16.67;;
151;SDS011;68;48.792;9.164;2023-06-10T05:37:38;28.50;;;15.03;;
151;SDS011;68;48.792;9.164;2023-06-10T05:40:06;26.07;;;14.27;;
151;SDS011;68;48.792;9.164;2023-06-10T05:42:33;26.70;;;14.73;;
151;SDS011;68;48.792;9.164;2023-06-10T05:45:00;25.67;;;12.50;;
151;SDS011;68;48.792;9.164;2023-06-10T05:47:27;26.17;;;12.70;;
151;SDS011;68;48.792;9.164;2023-06-10T05:49:54;24.80;;;12.67;;
151;SDS011;68;48.792;9.164;2023-06-10T05:52:20;24.50;;;12.40;;
151;SDS011;68;48.792;9.164;2023-06-10T05:54:49;25.50;;;12.37;;
151;SDS011;68;48.792;9.164;2023-06-10T05:57:16;26.70;;;13.70;;
151;SDS011;68;48.792;9.164;2023-06-10T05:59:43;28.40;;;13.17;;
151;SDS011;68;48.792;9.164;2023-06-10T06:02:10;25.17;;;12.93;;
151;SDS011;68;48.792;9.164;2023-06-10T06:04:37;26.17;;;11.97;;
151;SDS011;68;48.792;9.164;2023-06-10T06:07:04;23.20;;;11.87;;
151;SDS011;68;48.792;9.164;2023-06-10T06:09:31;26.83;;;13.50;;
151;SDS011;68;48.792;9.164;2023-06-10T06:11:59;24.83;;;13.30;;
151;SDS011;68;48.792;9.164;2023-06-10T06:14:26;25.03;;;12.03;;
151;SDS011;68;48.792;9.164;2023-06-10T06:16:57;24.07;;;11.63;;
151;SDS011;68;48.792;9.164;2023-06-10T06:19:24;24.80;;;12.10;;
151;SDS011;68;48.792;9.164;2023-06-10T06:21:51;25.73;;;12.63;;
151;SDS011;68;48.792;9.164;2023-06-10T06:24:17;23.73;;;11.60;;
151;SDS011;68;48.792;9.164;2023-06-10T06:26:44;26.73;;;12.50;;
151;SDS011;68;48.792;9.164;2023-06-10T06:29:12;24.97;;;11.73;;
151;SDS011;68;48.792;9.164;2023-06-10T06:31:39;24.80;;;12.87;;
151;SDS011;68;48.792;9.164;2023-06-10T06:34:06;25.37;;;11.90;;
151;SDS011;68;48.792;9.164;2023-06-10T06:36:32;26.93;;;12.90;;
151;SDS011;68;48.792;9.164;2023-06-10T06:38:59;25.50;;;11.60;;
151;SDS011;68;48.792;9.164;2023-06-10T06:41:26;23.43;;;11.43;;
151;SDS011;68;48.792;9.164;2023-06-10T06:43:53;25.57;;;12.20;;
151;SDS011;68;48.792;9.164;2023-06-10T06:46:21;24.80;;;11.75;;
151;SDS011;68;48.792;9.164;2023-06-10T06:48:48;22.17;;;10.30;;
151;SDS011;68;48.792;9.164;2023-06-10T06:51:15;23.90;;;11.03;;
151;SDS011;68;48.792;9.164;2023-06-10T06:53:42;22.70;;;9.93;;
151;SDS011;68;48.792;9.164;2023-06-10T06:56:09;24.03;;;11.63;;
151;SDS011;68;48.792;9.164;2023-06-10T06:58:36;22.60;;;9.90;;
151;SDS011;68;48.792;9.164;2023-06-10T07:01:03;24.37;;;11.27;;
151;SDS011;68;48.792;9.164;2023-06-10T07:03:32;24.17;;;11.43;;
151;SDS011;68;48.792;9.164;2023-06-10T07:05:59;24.57;;;11.50;;
151;SDS011;68;48.792;9.164;2023-06-10T07:08:26;23.17;;;10.40;;
151;SDS011;68;48.792;9.164;2023-06-10T07:10:53;22.67;;;10.77;;
151;SDS011;68;48.792;9.164;2023-06-10T07:13:20;26.47;;;11.47;;
151;SDS011;68;48.792;9.164;2023-06-10T07:15:47;24.83;;;10.70;;
151;SDS011;68;48.792;9.164;2023-06-10T07:18:14;23.57;;;11.30;;
151;SDS011;68;48.792;9.164;2023-06-10T07:20:43;23.77;;;10.43;;
151;SDS011;68;48.792;9.164;2023-06-10T07:23:10;24.47;;;11.00;;
151;SDS011;68;48.792;9.164;2023-06-10T07:25:36;26.83;;;9.27;;
151;SDS011;68;48.792;9.164;2023-06-10T07:28:03;25.30;;;9.70;;
151;SDS011;68;48.792;9.164;2023-06-10T07:30:30;21.03;;;8.20;;
151;SDS011;68;48.792;9.164;2023-06-10T07:32:57;22.20;;;10.03;;
151;SDS011;68;48.792;9.164;2023-06-10T07:35:24;25.17;;;9.90;;
151;SDS011;68;48.792;9.164;2023-06-10T07:37:52;23.27;;;9.70;;
151;SDS011;68;48.792;9.164;2023-06-10T07:40:19;22.10;;;9.53;;
151;SDS011;68;48.792;9.164;2023-06-10T07:42:45;24.70;;;10.33;;
151;SDS011;68;48.792;9.164;2023-06-10T07:45:12;22.40;;;9.17;;
151;SDS011;68;48.792;9.164;2023-06-10T07:47:39;25.07;;;10.17;;
151;SDS011;68;48.792;9.164;2023-06-10T07:50:06;22.10;;;9.47;;
151;SDS011;68;48.792;9.164;2023-06-10T07:52:33;23.10;;;10.07;;
151;SDS011;68;48.792;9.164;2023-06-10T07:55:01;24.20;;;9.73;;
151;SDS011;68;48.792;9.164;2023-06-10T07:57:28;22.57;;;10.27;;
151;SDS011;68;48.792;9.164;2023-06-10T07:59:56;24.20;;;10.07;;
151;SDS011;68;48.792;9.164;2023-06-10T08:02:25;21.93;;;9.40;;
151;SDS011;68;48.792;9.164;2023-06-10T08:04:51;23.87;;;10.53;;
151;SDS011;68;48.792;9.164;2023-06-10T08:07:18;21.57;;;9.20;;
151;SDS011;68;48.792;9.164;2023-06-10T08:09:45;21.80;;;9.00;;
151;SDS011;68;48.792;9.164;2023-06-10T08:12:13;22.43;;;9.70;;
151;SDS011;68;48.792;9.164;2023-06-10T08:14:40;21.70;;;9.03;;
151;SDS011;68;48.792;9.164;2023-06-10T08:17:07;24.00;;;9.90;;
151;SDS011;68;48.792;9.164;2023-06-10T08:19:33;22.50;;;9.80;;
151;SDS011;68;48.792;9.164;2023-06-10T08:22:00;24.47;;;9.50;;
151;SDS011;68;48.792;9.164;2023-06-10T08:24:27;21.53;;;8.40;;
151;SDS011;68;48.792;9.164;2023-06-10T08:26:54;24.37;;;9.40;;
151;SDS011;68;48.792;9.164;2023-06-10T08:29:23;21.40;;;9.17;;
151;SDS011;68;48.792;9.164;2023-06-10T08:31:50;22.00;;;8.63;;
151;SDS011;68;48.792;9.164;2023-06-10T08:34:17;21.03;;;8.93;;
151;SDS011;68;48.792;9.164;2023-06-10T08:36:43;24.40;;;9.10;;
151;SDS011;68;48.792;9.164;2023-06-10T08:39:10;24.00;;;9.40;;
151;SDS011;68;48.792;9.164;2023-06-10T08:41:39;21.97;;;8.60;;
151;SDS011;68;48.792;9.164;2023-06-10T08:44:09;24.87;;;8.87;;
151;SDS011;68;48.792;9.164;2023-06-10T08:46:45;23.63;;;8.60;;
151;SDS011;68;48.792;9.164;2023-06-10T08:49:14;22.10;;;8.80;;
151;SDS011;68;48.792;9.164;2023-06-10T08:51:46;24.00;;;8.90;;
151;SDS011;68;48.792;9.164;2023-06-10T08:54:17;24.30;;;9.10;;
151;SDS011;68;48.792;9.164;2023-06-10T08:56:47;21.77;;;8.47;;
151;SDS011;68;48.792;9.164;2023-06-10T08:59:16;21.77;;;8.00;;
151;SDS011;68;48.792;9.164;2023-06-10T09:01:45;23.40;;;8.10;;
151;SDS011;68;48.792;9.164;2023-06-10T09:04:13;21.67;;;8.20;;
151;SDS011;68;48.792;9.164;2023-06-10T09:06:41;22.57;;;8.40;;
151;SDS011;68;48.792;9.164;2023-06-10T09:09:08;21.90;;;8.87;;
151;SDS011;68;48.792;9.164;2023-06-10T09:11:35;23.10;;;9.10;;
151;SDS011;68;48.792;9.164;2023-06-10T09:14:04;25.90;;;9.00;;
151;SDS011;68;48.792;9.164;2023-06-10T09:16:30;23.60;;;9.17;;
151;SDS011;68;48.792;9.164;2023-06-10T09:18:58;21.73;;;8.20;;
151;SDS011;68;48.792;9.164;2023-06-10T09:21:25;22.20;;;8.37;;
151;SDS011;68;48.792;9.164;2023-06-10T09:23:52;24.87;;;9.37;;
151;SDS011;68;48.792;9.164;2023-06-10T09:26:19;22.13;;;8.53;;
151;SDS011;68;48.792;9.164;2023-06-10T09:28:48;23.00;;;8.93;;
151;SDS011;68;48.792;9.164;2023-06-10T09:31:15;23.03;;;8.73;;
151;SDS011;68;48.792;9.164;2023-06-10T09:33:44;22.63;;;8.73;;
151;SDS011;68;48.792;9.164;2023-06-10T09:36:20;22.63;;;8.00;;
151;SDS011;68;48.792;9.164;2023-06-10T09:38:49;25.03;;;8.33;;
151;SDS011;68;48.792;9.164;2023-06-10T09:41:16;23.00;;;8.77;;
151;SDS011;68;48.792;9.164;2023-06-10T09:43:44;24.73;;;8.40;;
151;SDS011;68;48.792;9.164;2023-06-10T09:46:14;21.20;;;8.17;;
151;SDS011;68;48.792;9.164;2023-06-10T09:48:43;22.60;;;9.20;;
151;SDS011;68;48.792;9.164;2023-06-10T09:51:11;22.43;;;8.60;;
151;SDS011;68;48.792;9.164;2023-06-10T09:53:40;21.97;;;8.80;;
151;SDS011;68;48.792;9.164;2023-06-10T09:56:06;21.90;;;9.17;;
151;SDS011;68;48.792;9.164;2023-06-10T09:58:34;23.67;;;9.30;;
151;SDS011;68;48.792;9.164;2023-06-10T10:01:04;25.83;;;8.73;;
151;SDS011;68;48.792;9.164;2023-06-10T10:03:31;25.10;;;9.70;;
151;SDS011;68;48.792;9.164;2023-06-10T10:05:58;21.70;;;8.47;;
151;SDS011;68;48.792;9.164;2023-06-10T10:08:27;22.70;;;8.27;;
151;SDS011;68;48.792;9.164;2023-06-10T10:10:55;23.47;;;8.50;;
151;SDS011;68;48.792;9.164;2023-06-10T10:13:24;24.80;;;8.80;;
151;SDS011;68;48.792;9.164;2023-06-10T10:15:53;22.83;;;9.00;;
151;SDS011;68;48.792;9.164;2023-06-10T10:18:21;24.50;;;9.03;;
151;SDS011;68;48.792;9.164;2023-06-10T10:20:53;23.00;;;8.53;;
151;SDS011;68;48.792;9.164;2023-06-10T10:23:21;22.33;;;8.67;;
151;SDS011;68;48.792;9.164;2023-06-10T10:25:54;22.37;;;8.00;;
151;SDS011;68;48.792;9.164;2023-06-10T10:28:21;23.07;;;8.60;;
151;SDS011;68;48.792;9.164;2023-06-10T10:30:52;21.87;;;8.30;;
151;SDS011;68;48.792;9.164;2023-06-10T10:33:27;23.60;;;7.77;;
151;SDS011;68;48.792;9.164;2023-06-10T10:36:02;22.53;;;8.60;;
151;SDS011;68;48.792;9.164;2023-06-10T10:38:29;21.90;;;8.40;;
151;SDS011;68;48.792;9.164;2023-06-10T10:40:57;30.63;;;7.90;;
151;SDS011;68;48.792;9.164;2023-06-10T10:43:26;22.20;;;8.43;;
151;SDS011;68;48.792;9.164;2023-06-10T10:45:59;23.00;;;8.33;;
151;SDS011;68;48.792;9.164;2023-06-10T10:48:27;22.00;;;8.30;;
151;SDS011;68;48.792;9.164;2023-06-10T10:51:00;24.30;;;8.60;;
151;SDS011;68;48.792;9.164;2023-06-10T10:53:27;26.73;;;8.77;;
151;SDS011;68;48.792;9.164;2023-06-10T10:56:05;22.50;;;8.80;;
151;SDS011;68;48.792;9.164;2023-06-10T10:58:33;21.73;;;8.40;;
151;SDS011;68;48.792;9.164;2023-06-10T11:00:59;22.20;;;8.27;;
151;SDS011;68;48.792;9.164;2023-06-10T11:03:35;22.03;;;8.00;;
151;SDS011;68;48.792;9.164;2023-06-10T11:06:11;22.60;;;8.53;;
151;SDS011;68;48.792;9.164;2023-06-10T11:08:45;21.40;;;8.40;;
151;SDS011;68;48.792;9.164;2023-06-10T11:11:21;22.30;;;9.17;;
151;SDS011;68;48.792;9.164;2023-06-10T11:13:58;22.93;;;8.30;;
151;SDS011;68;48.792;9.164;2023-06-10T11:16:38;21.77;;;8.23;;
151;SDS011;68;48.792;9.164;2023-06-10T11:19:06;20.87;;;8.00;;
151;SDS011;68;48.792;9.164;2023-06-10T11:21:36;28.00;;;8.43;;
151;SDS011;68;48.792;9.164;2023-06-10T11:24:23;22.53;;;8.50;;
151;SDS011;68;48.792;9.164;2023-06-10T11:26:51;25.47;;;8.50;;
151;SDS011;68;48.792;9.164;2023-06-10T11:29:18;22.30;;;8.03;;
151;SDS011;68;48.792;9.164;2023-06-10T11:31:50;22.90;;;8.37;;
151;SDS011;68;48.792;9.164;2023-06-10T11:34:21;22.57;;;8.20;;
151;SDS011;68;48.792;9.164;2023-06-10T11:36:50;23.00;;;8.40;;
151;SDS011;68;48.792;9.164;2023-06-10T11:39:18;26.53;;;8.43;;
151;SDS011;68;48.792;9.164;2023-06-10T11:41:46;26.43;;;8.77;;
151;SDS011;68;48.792;9.164;2023-06-10T11:44:15;21.60;;;8.03;;
151;SDS011;68;48.792;9.164;2023-06-10T11:46:41;21.07;;;7.87;;
151;SDS011;68;48.792;9.164;2023-06-10T11:49:08;22.13;;;8.10;;
151;SDS011;68;48.792;9.164;2023-06-10T11:51:36;21.63;;;7.67;;
151;SDS011;68;48.792;9.164;2023-06-10T11:54:05;22.80;;;7.77;;
151;SDS011;68;48.792;9.164;2023-06-10T11:56:34;22.60;;;7.90;;
151;SDS011;68;48.792;9.164;2023-06-10T11:59:02;22.80;;;8.07;;
151;SDS011;68;48.792;9.164;2023-06-10T12:01:33;22.47;;;7.77;;
151;SDS011;68;48.792;9.164;2023-06-10T12:04:02;22.47;;;9.00;;
151;SDS011;68;48.792;9.164;2023-06-10T12:06:39;21.70;;;7.70;;
151;SDS011;68;48.792;9.164;2023-06-10T12:09:19;21.43;;;7.37;;
151;SDS011;68;48.792;9.164;2023-06-10T12:11:48;21.47;;;7.17;;
151;SDS011;68;48.792;9.164;2023-06-10T12:14:16;23.73;;;7.70;;
151;SDS011;68;48.792;9.164;2023-06-10T12:16:59;21.40;;;7.80;;
151;SDS011;68;48.792;9.164;2023-06-10T12:19:26;21.07;;;7.57;;
151;SDS011;68;48.792;9.164;2023-06-10T12:21:53;21.70;;;7.43;;
151;SDS011;68;48.792;9.164;2023-06-10T12:24:19;20.83;;;7.57;;
151;SDS011;68;48.792;9.164;2023-06-10T12:26:46;22.97;;;8.00;;
151;SDS011;68;48.792;9.164;2023-06-10T12:29:16;21.77;;;7.90;;
151;SDS011;68;48.792;9.164;2023-06-10T12:31:52;23.77;;;6.97;;
151;SDS011;68;48.792;9.164;2023-06-10T12:34:34;21.20;;;7.43;;
151;SDS011;68;48.792;9.164;2023-06-10T12:37:03;20.37;;;6.83;;
151;SDS011;68;48.792;9.164;2023-06-10T12:39:31;20.10;;;6.50;;
151;SDS011;68;48.792;9.164;2023-06-10T12:41:58;26.67;;;7.60;;
151;SDS011;68;48.792;9.164;2023-06-10T12:44:29;21.13;;;7.20;;
151;SDS011;68;48.792;9.164;2023-06-10T12:46:56;23.17;;;7.10;;
151;SDS011;68;48.792;9.164;2023-06-10T12:49:23;20.37;;;7.17;;
151;SDS011;68;48.792;9.164;2023-06-10T12:51:52;19.97;;;6.60;;
151;SDS011;68;48.792;9.164;2023-06-10T12:54:20;19.90;;;6.40;;
151;SDS011;68;48.792;9.164;2023-06-10T12:56:46;21.13;;;6.83;;
151;SDS011;68;48.792;9.164;2023-06-10T12:59:13;20.37;;;6.77;;
151;SDS011;68;48.792;9.164;2023-06-10T13:01:40;23.53;;;7.90;;
151;SDS011;68;48.792;9.164;2023-06-10T13:04:07;20.93;;;7.77;;
151;SDS011;68;48.792;9.164;2023-06-10T13:06:34;23.23;;;6.63;;
151;SDS011;68;48.792;9.164;2023-06-10T13:09:05;21.80;;;7.00;;
151;SDS011;68;48.792;9.164;2023-06-10T13:11:33;22.30;;;6.87;;
151;SDS011;68;48.792;9.164;2023-06-10T13:14:00;20.37;;;6.70;;
151;SDS011;68;48.792;9.164;2023-06-10T13:16:29;20.93;;;6.80;;
151;SDS011;68;48.792;9.164;2023-06-10T13:18:56;26.00;;;7.10;;
151;SDS011;68;48.792;9.164;2023-06-10T13:21:23;20.50;;;6.60;;
151;SDS011;68;48.792;9.164;2023-06-10T13:23:50;21.77;;;7.00;;
151;SDS011;68;48.792;9.164;2023-06-10T13:26:18;20.47;;;7.30;;
151;SDS011;68;48.792;9.164;2023-06-10T13:28:45;19.57;;;6.33;;
151;SDS011;68;48.792;9.164;2023-06-10T13:31:12;21.43;;;6.70;;
151;SDS011;68;48.792;9.164;2023-06-10T13:33:38;24.37;;;7.40;;
151;SDS011;68;48.792;9.164;2023-06-10T13:36:05;21.00;;;6.87;;
151;SDS011;68;48.792;9.164;2023-06-10T13:38:32;21.90;;;6.47;;
151;SDS011;68;48.792;9.164;2023-06-10T13:40:59;20.00;;;6.60;;
151;SDS011;68;48.792;9.164;2023-06-10T13:43:27;20.70;;;6.30;;
151;SDS011;68;48.792;9.164;2023-06-10T13:45:55;21.30;;;6.63;;
151;SDS011;68;48.792;9.164;2023-06-10T13:48:21;19.90;;;6.40;;
151;SDS011;68;48.792;9.164;2023-06-10T13:50:48;22.03;;;6.80;;
151;SDS011;68;48.792;9.164;2023-06-10T13:53:15;20.57;;;6.53;;
151;SDS011;68;48.792;9.164;2023-06-10T13:55:42;20.63;;;6.27;;
151;SDS011;68;48.792;9.164;2023-06-10T13:58:08;20.37;;;6.87;;
151;SDS011;68;48.792;9.164;2023-06-10T14:00:36;22.03;;;7.27;;
151;SDS011;68;48.792;9.164;2023-06-10T14:03:03;24.87;;;6.93;;
151;SDS011;68;48.792;9.164;2023-06-10T14:05:30;19.83;;;6.53;;
151;SDS011;68;48.792;9.164;2023-06-10T14:07:57;20.77;;;6.97;;
151;SDS011;68;48.792;9.164;2023-06-10T14:10:24;23.13;;;6.97;;
151;SDS011;68;48.792;9.164;2023-06-10T14:12:51;25.47;;;6.60;;
151;SDS011;68;48.792;9.164;2023-06-10T14:15:18;22.20;;;6.87;;
151;SDS011;68;48.792;9.164;2023-06-10T14:17:46;21.60;;;7.00;;
151;SDS011;68;48.792;9.164;2023-06-10T14:20:13;21.43;;;6.43;;
151;SDS011;68;48.792;9.164;2023-06-10T14:22:40;22.75;;;6.07;;
151;SDS011;68;48.792;9.164;2023-06-10T14:25:07;22.60;;;6.50;;
151;SDS011;68;48.792;9.164;2023-06-10T14:27:34;21.77;;;6.77;;
151;SDS011;68;48.792;9.164;2023-06-10T14:30:01;20.80;;;6.87;;
151;SDS011;68;48.792;9.164;2023-06-10T14:32:28;22.67;;;6.40;;
151;SDS011;68;48.792;9.164;2023-06-10T14:34:57;22.00;;;6.47;;
151;SDS011;68;48.792;9.164;2023-06-10T14:37:23;21.13;;;6.50;;
151;SDS011;68;48.792;9.164;2023-06-10T14:39:50;20.47;;;6.67;;
151;SDS011;68;48.792;9.164;2023-06-10T14:42:17;21.47;;;6.67;;
151;SDS011;68;48.792;9.164;2023-06-10T14:44:43;21.37;;;7.47;;
151;SDS011;68;48.792;9.164;2023-06-10T14:47:10;21.40;;;7.70;;
151;SDS011;68;48.792;9.164;2023-06-10T14:49:37;23.80;;;7.83;;
151;SDS011;68;48.792;9.164;2023-06-10T14:52:05;22.80;;;7.90;;
151;SDS011;68;48.792;9.164;2023-06-10T14:54:33;25.90;;;7.43;;
151;SDS011;68;48.792;9.164;2023-06-10T14:56:59;21.70;;;7.60;;
151;SDS011;68;48.792;9.164;2023-06-10T14:59:26;21.53;;;7.20;;
151;SDS011;68;48.792;9.164;2023-06-10T15:01:53;21.27;;;7.37;;
151;SDS011;68;48.792;9.164;2023-06-10T15:04:19;20.87;;;7.20;;
151;SDS011;68;48.792;9.164;2023-06-10T15:06:46;20.60;;;7.30;;
151;SDS011;68;48.792;9.164;2023-06-10T15:09:15;23.50;;;8.27;;
151;SDS011;68;48.792;9.164;2023-06-10T15:11:42;20.70;;;7.10;;
151;SDS011;68;48.792;9.164;2023-06-10T15:14:08;22.20;;;7.57;;
151;SDS011;68;48.792;9.164;2023-06-10T15:16:35;20.30;;;7.07;;
151;SDS011;68;48.792;9.164;2023-06-10T15:19:02;21.50;;;7.87;;
151;SDS011;68;48.792;9.164;2023-06-10T15:21:31;21.70;;;7.80;;
151;SDS011;68;48.792;9.164;2023-06-10T15:23:58;22.90;;;8.27;;
151;SDS011;68;48.792;9.164;2023-06-10T15:26:26;23.13;;;8.27;;
151;SDS011;68;48.792;9.164;2023-06-10T15:28:53;22.20;;;7.77;;
151;SDS011;68;48.792;9.164;2023-06-10T15:31:20;22.17;;;8.00;;
151;SDS011;68;48.792;9.164;2023-06-10T15:33:47;22.60;;;7.03;;
151;SDS011;68;48.792;9.164;2023-06-10T15:36:13;24.80;;;7.80;;
151;SDS011;68;48.792;9.164;2023-06-10T15:38:40;19.93;;;6.97;;
151;SDS011;68;48.792;9.164;2023-06-10T15:41:07;22.80;;;7.50;;